KTMA/TMA METAR and TAF weather

Enter ICAO airport designator
Station Type Date Time Source
KTMA METAR 2021/10/20 06:15 UTC NOAA

KTMA 200615Z AUTO 00000KT 10SM CLR 12/11 A3022 RMK AO2 T01150106


Station Type Date Time Source
KTMA Decoded METAR 2021/10/20 06:15 UTC NOAA

Station name not available
Oct 20, 2021 - 02:15 AM EDT / 2021.10.20 0615 UTC
Wind: Calm:0
Visibility: 10 mile(s):0
Sky conditions: clear
Temperature: 52.7 F (11.5 C)
Dew Point: 51.1 F (10.6 C)
Relative Humidity: 94%
Pressure (altimeter): 30.22 in. Hg (1023 hPa)
ob: KTMA 200615Z AUTO 00000KT 10SM CLR 12/11 A3022 RMK AO2 T01150106
cycle: 6

Station Type Date Time Source
KTMA TAF UTC NOAA

Error!

Example: see airport list